• Join FlightAware (Why Join?)
  • Login
  • US Flag 
08:49PM EST


 

Airport Tracker/Info


-or-


 

Live Flight TrackerFlight Track Log ✈ SWA2326 ✈ 20-Apr-2013 ✈ KSDF - KMDW

Flight Track Log - Related Links

Times and Time Zones

All times are in EDT time to prevent confusion due to time zone crossing. See the SWA2326 flight status page for this flight to view local times or setup timezone preferences in your user account.

Time Position Orientation Groundspeed Altitude Reporting Facility
EDT Latitude Longitude Course Direction KTS MPH feet Rate Location/Type
09:28AM 38.1431 -85.7347 178° South 171 197 2,100  Level FAA TRACON SMA TRACON (SMA)
09:28AM 38.1258 -85.7339 178° South 191 220 2,700 3,060 Climbing FAA TRACON SMA TRACON (SMA)
09:28AM 38.1033 -85.7367 186° South 214 246 4,100 3,600 Climbing FAA TRACON SMA TRACON (SMA)
09:29AM 38.0886 -85.7492 214° Southwest 212 244 5,200 3,120 Climbing FAA TRACON SMA TRACON (SMA)
09:29AM 38.0792 -85.7678 237° Southwest 208 239 6,200 2,700 Climbing FAA TRACON SMA TRACON (SMA)
09:29AM 38.0761 -85.7956 262° West 209 241 7,000 2,700 Climbing FAA TRACON SMA TRACON (SMA)
09:30AM 38.0756 -85.8225 269° West 235 270 8,000 3,480 Climbing FAA TRACON SMA TRACON (SMA)
09:30AM 38.0747 -85.8506 268° West 256 295 9,300 3,720 Climbing FAA TRACON SMA TRACON (SMA)
09:30AM 38.0822 -85.8839 286° West 267 307 10,500 2,400 Climbing FAA TRACON SMA TRACON (SMA)
09:31AM 38.1008 -85.9036 320° Northwest 283 326 10,900 1,140 Climbing FAA TRACON SMA TRACON (SMA)
09:31AM 38.1272 -85.9083 352° North 309 356 11,300 2,400 Climbing FAA TRACON SMA TRACON (SMA)
09:31AM 38.1556 -85.9106 356° North 327 376 12,500 4,620 Climbing FAA TRACON SMA TRACON (SMA)
09:32AM 38.2203 -85.9181 355° North 337 388 15,900 4,500 Climbing FAA TRACON SMA TRACON (SMA)
09:32AM 38.2503 -85.9206 356° North 346 398 17,000 3,480 Climbing FAA TRACON SMA TRACON (SMA)
09:33AM 38.2883 -85.9228 357° North 355 409 18,300 3,600 Climbing FAA TRACON SMA TRACON (SMA)
09:33AM 38.3192 -85.9244 358° North 360 414 19,400 3,300 Climbing FAA TRACON SMA TRACON (SMA)
09:33AM 38.3506 -85.9253 359° North 363 418 20,500 3,420 Climbing FAA TRACON SMA TRACON (SMA)
09:34AM 38.3897 -85.9272 358° North 368 423 21,700 3,180 Climbing FAA TRACON SMA TRACON (SMA)
09:34AM 38.4219 -85.9283 358° North 374 430 22,600 1,920 Climbing FAA TRACON SMA TRACON (SMA)
09:34AM 38.4547 -85.9297 358° North 379 436 23,000 600 Climbing FAA TRACON SMA TRACON (SMA)
09:35AM 38.4875 -85.9308 358° North 382 440 23,000  Level FAA TRACON SMA TRACON (SMA)
09:35AM 38.5283 -85.9325 358° North 382 440 23,000  Level FAA TRACON SMA TRACON (SMA)
09:35AM 38.5606 -85.9342 358° North 380 437 23,000 1,200 Level FAA TRACON SMA TRACON (SMA)
09:36AM 38.6017 -85.9369 357° North 382 440 23,800 2,820 Climbing FAA TRACON SMA TRACON (SMA)
09:36AM 38.6347 -85.9381 358° North 386 444 24,900 3,480 Climbing FAA TRACON SMA TRACON (SMA)
09:36AM 38.6678 -85.9397 358° North 387 445 26,100 3,600 Climbing FAA TRACON SMA TRACON (SMA)
09:37AM 38.7081 -85.9439 355° North 380 437 27,400 2,700 Climbing FAA TRACON SMA TRACON (SMA)
09:37AM 38.7411 -85.9444 359° North 382 440 27,900 900 Climbing FAA TRACON SMA TRACON (SMA)
09:37AM 38.7744 -85.9464 357° North 386 444 28,000 120 Climbing FAA TRACON SMA TRACON (SMA)
09:38AM 38.8167 -85.9492 357° North 395 455 28,000  Level FAA TRACON SMA TRACON (SMA)
09:38AM 38.8517 -85.9517 357° North 403 464 28,000  Level FAA TRACON SMA TRACON (SMA)
09:38AM 38.8872 -85.9533 358° North 411 473 28,000  Level FAA TRACON SMA TRACON (SMA)
09:39AM 38.9319 -85.9542 359° North 417 480 28,000  Level FAA TRACON SMA TRACON (SMA)
09:39AM 38.9672 -85.9586 354° North 415 478 28,000  Level FAA TRACON SMA TRACON (SMA)
09:39AM 39.0028 -85.9592 359° North 416 479 28,000  Level FAA TRACON SMA TRACON (SMA)
09:40AM 39.0469 -85.9628 356° North 415 478 28,000  Level FAA TRACON SMA TRACON (SMA)
09:40AM 39.0831 -85.9636 359° North 416 479 28,000  Level FAA TRACON SMA TRACON (SMA)
09:40AM 39.1186 -85.9656 358° North 417 480 28,000  Level FAA TRACON SMA TRACON (SMA)
09:41AM 39.1631 -85.9692 356° North 416 479 28,000  Level FAA TRACON SMA TRACON (SMA)
09:41AM 39.1969 -85.9700 359° North 413 475 28,000  Level Indianapolis Center
09:42AM 39.3139 -85.9797 356° North 418 481 28,000  Level Indianapolis Center
09:43AM 39.4294 -85.9867 357° North 415 478 28,000  Level Indianapolis Center
09:44AM 39.5350 -85.9944 357° North 386 444 28,000  Level Indianapolis Center
09:45AM 39.6431 -85.9983 358° North 385 443 28,000 -60 Level Indianapolis Center
09:46AM 39.7628 -86.0078 357° North 414 476 27,900 -1,020 Descending Indianapolis Center
09:47AM 39.8875 -86.0156 357° North 436 502 26,000 -1,920 Descending Indianapolis Center
09:48AM 40.0372 -86.0264 357° North 446 513 24,000 -1,020 Descending Indianapolis Center
09:49AM 40.1469 -86.0686 344° North 416 479 24,000 -120 Level Indianapolis Center
09:50AM 40.2233 -86.1003 342° North 399 459 23,800 -780 Descending Chicago Center
09:51AM 40.3281 -86.1425 343° North 394 453 22,700 -1,080 Descending Chicago Center
09:52AM 40.4300 -86.1822 343° North 382 440 21,700 -1,020 Descending Chicago Center
09:53AM 40.5306 -86.2225 343° North 378 435 20,700 -1,020 Descending Chicago Center
09:54AM 40.6281 -86.2614 343° North 369 425 19,700 -1,020 Descending Chicago Center
09:55AM 40.7231 -86.3003 343° North 359 413 18,700 -1,020 Descending Chicago Center
09:56AM 40.8164 -86.3381 343° North 354 407 17,700 -1,680 Descending Chicago Center
09:57AM 40.9075 -86.3753 343° North 344 396 15,300 -2,640 Descending Chicago Center
09:58AM 40.9964 -86.4114 343° North 334 384 12,400 -2,160 Descending Chicago Center
09:59AM 41.0769 -86.4953 322° Northwest 319 367 10,900 -1,140 Descending Chicago Center
10:00AM 41.1353 -86.5792 313° West 313 360 10,100 -480 Descending Chicago Center
10:01AM 41.1919 -86.6664 311° West 312 359 10,000 -60 Descending Chicago Center
10:02AM 41.2547 -86.7594 312° West 312 359 10,000 -60 Level Chicago Center
10:03AM 41.3086 -86.8411 311° West 299 344 9,900 -420 Descending Chicago Center
10:04AM 41.3511 -86.9086 310° West 246 283 9,200 -840 Descending Chicago Center
10:06AM 41.3964 -86.9758 312° West 245 282 8,200 -1,020 Descending Chicago Center
10:07AM 41.4406 -87.0439 311° West 247 284 7,200 -1,080 Descending Chicago Center
10:08AM 41.4833 -87.1333 303° West 243 280 6,100 -900 Descending Chicago TRACON
10:08AM 41.5000 -87.2000 288° West 240 276 5,600 -540 Descending Chicago TRACON
10:09AM 41.5333 -87.2833 298° West 239 275 5,100 -540 Descending Chicago TRACON
10:10AM 41.5667 -87.3500 304° West 242 278 4,600 -540 Descending Chicago TRACON
10:11AM 41.6000 -87.4167 304° West 242 278 4,100 -480 Descending Chicago TRACON
10:12AM 41.6081 -87.4467 290° West 241 277 4,000 -180 Descending Chicago Center
10:13AM 41.6392 -87.5233 299° West 239 275 3,900 -60 Descending Chicago Center
10:14AM 41.6669 -87.5878 300° West 223 257 3,900 -480 Level Chicago Center
10:15AM 41.7006 -87.6339 314° West 193 222 3,000 -960 Descending Chicago Center
10:15AM 41.7167 -87.6667 303° West 155 178 2,400 -900 Descending Chicago TRACON
10:16AM 41.7500 -87.7000 323° Northwest 121 139 1,600 -780 Descending Chicago TRACON
10:17AM 41.7667 -87.7333 304° West 117 135 1,000 -780 Descending Chicago TRACON